sensor_id;sensor_type;location;lat;lon;timestamp;temperature;humidity
22966;DHT22;11649;48.090;9.754;2023-04-30T00:02:12;12.10;99.90
22966;DHT22;11649;48.090;9.754;2023-04-30T00:04:39;12.10;99.90
22966;DHT22;11649;48.090;9.754;2023-04-30T00:07:06;12.10;99.90
22966;DHT22;11649;48.090;9.754;2023-04-30T00:09:34;12.10;99.90
22966;DHT22;11649;48.090;9.754;2023-04-30T00:12:00;12.00;99.90
22966;DHT22;11649;48.090;9.754;2023-04-30T00:14:27;12.00;99.90
22966;DHT22;11649;48.090;9.754;2023-04-30T00:16:54;12.00;99.90
22966;DHT22;11649;48.090;9.754;2023-04-30T00:19:21;12.00;99.90
22966;DHT22;11649;48.090;9.754;2023-04-30T00:21:47;12.00;99.90
22966;DHT22;11649;48.090;9.754;2023-04-30T00:24:14;12.00;99.90
22966;DHT22;11649;48.090;9.754;2023-04-30T00:26:41;11.90;99.90
22966;DHT22;11649;48.090;9.754;2023-04-30T00:29:09;11.90;99.90
22966;DHT22;11649;48.090;9.754;2023-04-30T00:31:36;11.90;99.90
22966;DHT22;11649;48.090;9.754;2023-04-30T00:34:03;11.90;99.90
22966;DHT22;11649;48.090;9.754;2023-04-30T00:36:30;11.90;99.90
22966;DHT22;11649;48.090;9.754;2023-04-30T00:38:57;11.90;99.90
22966;DHT22;11649;48.090;9.754;2023-04-30T00:41:24;11.90;99.90
22966;DHT22;11649;48.090;9.754;2023-04-30T00:43:51;11.90;99.90
22966;DHT22;11649;48.090;9.754;2023-04-30T00:46:18;11.90;99.90
22966;DHT22;11649;48.090;9.754;2023-04-30T00:48:45;11.90;99.90
22966;DHT22;11649;48.090;9.754;2023-04-30T00:51:12;11.90;99.90
22966;DHT22;11649;48.090;9.754;2023-04-30T00:53:39;11.80;99.90
22966;DHT22;11649;48.090;9.754;2023-04-30T00:56:08;11.80;99.90
22966;DHT22;11649;48.090;9.754;2023-04-30T00:58:35;11.70;99.90
22966;DHT22;11649;48.090;9.754;2023-04-30T01:01:02;11.70;99.90
22966;DHT22;11649;48.090;9.754;2023-04-30T01:03:29;11.70;99.90
22966;DHT22;11649;48.090;9.754;2023-04-30T01:05:56;11.70;99.90
22966;DHT22;11649;48.090;9.754;2023-04-30T01:08:23;11.70;99.90
22966;DHT22;11649;48.090;9.754;2023-04-30T01:13:39;11.70;99.90
22966;DHT22;11649;48.090;9.754;2023-04-30T01:16:16;11.60;99.90
22966;DHT22;11649;48.090;9.754;2023-04-30T01:18:51;11.60;99.90
22966;DHT22;11649;48.090;9.754;2023-04-30T01:21:20;11.60;99.90
22966;DHT22;11649;48.090;9.754;2023-04-30T01:24:27;11.50;99.90
22966;DHT22;11649;48.090;9.754;2023-04-30T01:27:12;11.60;99.90
22966;DHT22;11649;48.090;9.754;2023-04-30T01:29:41;11.50;99.90
22966;DHT22;11649;48.090;9.754;2023-04-30T01:32:12;11.50;99.90
22966;DHT22;11649;48.090;9.754;2023-04-30T01:34:38;11.50;99.90
22966;DHT22;11649;48.090;9.754;2023-04-30T01:37:10;11.60;99.90
22966;DHT22;11649;48.090;9.754;2023-04-30T01:43:07;11.60;99.90
22966;DHT22;11649;48.090;9.754;2023-04-30T01:45:56;11.90;99.90
22966;DHT22;11649;48.090;9.754;2023-04-30T01:51:40;11.60;99.90
22966;DHT22;11649;48.090;9.754;2023-04-30T01:54:19;11.50;99.90
22966;DHT22;11649;48.090;9.754;2023-04-30T01:57:15;11.50;99.90
22966;DHT22;11649;48.090;9.754;2023-04-30T01:59:42;11.40;99.90
22966;DHT22;11649;48.090;9.754;2023-04-30T02:02:10;11.50;99.90
22966;DHT22;11649;48.090;9.754;2023-04-30T02:04:37;11.50;99.90
22966;DHT22;11649;48.090;9.754;2023-04-30T02:07:03;11.40;99.90
22966;DHT22;11649;48.090;9.754;2023-04-30T02:09:30;11.40;99.90
22966;DHT22;11649;48.090;9.754;2023-04-30T02:11:57;11.80;99.90
22966;DHT22;11649;48.090;9.754;2023-04-30T02:14:24;11.30;99.90
22966;DHT22;11649;48.090;9.754;2023-04-30T02:16:51;11.30;99.90
22966;DHT22;11649;48.090;9.754;2023-04-30T02:19:17;11.30;99.90
22966;DHT22;11649;48.090;9.754;2023-04-30T02:21:44;11.30;99.90
22966;DHT22;11649;48.090;9.754;2023-04-30T02:24:11;11.30;99.90
22966;DHT22;11649;48.090;9.754;2023-04-30T02:26:38;11.20;99.90
22966;DHT22;11649;48.090;9.754;2023-04-30T02:29:04;11.20;99.90
22966;DHT22;11649;48.090;9.754;2023-04-30T02:31:31;11.20;99.90
22966;DHT22;11649;48.090;9.754;2023-04-30T02:33:58;11.20;99.90
22966;DHT22;11649;48.090;9.754;2023-04-30T02:36:24;11.20;99.90
22966;DHT22;11649;48.090;9.754;2023-04-30T02:38:51;11.20;99.90
22966;DHT22;11649;48.090;9.754;2023-04-30T02:41:18;11.20;99.90
22966;DHT22;11649;48.090;9.754;2023-04-30T02:43:45;11.20;99.90
22966;DHT22;11649;48.090;9.754;2023-04-30T02:46:11;11.10;99.90
22966;DHT22;11649;48.090;9.754;2023-04-30T02:48:38;11.10;99.90
22966;DHT22;11649;48.090;9.754;2023-04-30T02:51:05;11.00;99.90
22966;DHT22;11649;48.090;9.754;2023-04-30T02:53:32;11.00;99.90
22966;DHT22;11649;48.090;9.754;2023-04-30T02:55:58;10.90;99.90
22966;DHT22;11649;48.090;9.754;2023-04-30T02:58:26;10.80;99.90
22966;DHT22;11649;48.090;9.754;2023-04-30T03:00:52;10.80;99.90
22966;DHT22;11649;48.090;9.754;2023-04-30T03:03:19;10.70;99.90
22966;DHT22;11649;48.090;9.754;2023-04-30T03:05:46;10.70;99.90
22966;DHT22;11649;48.090;9.754;2023-04-30T03:08:13;10.70;99.90
22966;DHT22;11649;48.090;9.754;2023-04-30T03:10:40;10.60;99.90
22966;DHT22;11649;48.090;9.754;2023-04-30T03:13:06;10.70;99.90
22966;DHT22;11649;48.090;9.754;2023-04-30T03:15:33;10.70;99.90
22966;DHT22;11649;48.090;9.754;2023-04-30T03:18:00;10.60;99.90
22966;DHT22;11649;48.090;9.754;2023-04-30T03:20:27;10.60;99.90
22966;DHT22;11649;48.090;9.754;2023-04-30T03:22:53;10.60;99.90
22966;DHT22;11649;48.090;9.754;2023-04-30T03:25:20;10.50;99.90
22966;DHT22;11649;48.090;9.754;2023-04-30T03:27:47;10.50;99.90
22966;DHT22;11649;48.090;9.754;2023-04-30T03:30:14;10.50;99.90
22966;DHT22;11649;48.090;9.754;2023-04-30T03:32:40;10.50;99.90
22966;DHT22;11649;48.090;9.754;2023-04-30T03:35:07;10.50;99.90
22966;DHT22;11649;48.090;9.754;2023-04-30T03:37:34;10.50;99.90
22966;DHT22;11649;48.090;9.754;2023-04-30T03:40:01;10.40;99.90
22966;DHT22;11649;48.090;9.754;2023-04-30T03:42:28;10.40;99.90
22966;DHT22;11649;48.090;9.754;2023-04-30T03:44:54;10.40;99.90
22966;DHT22;11649;48.090;9.754;2023-04-30T03:47:21;10.40;99.90
22966;DHT22;11649;48.090;9.754;2023-04-30T03:49:48;10.50;99.90
22966;DHT22;11649;48.090;9.754;2023-04-30T03:52:21;10.50;99.90
22966;DHT22;11649;48.090;9.754;2023-04-30T03:54:48;10.50;99.90
22966;DHT22;11649;48.090;9.754;2023-04-30T03:57:14;10.50;99.90
22966;DHT22;11649;48.090;9.754;2023-04-30T03:59:41;10.50;99.90
22966;DHT22;11649;48.090;9.754;2023-04-30T04:02:08;10.50;99.90
22966;DHT22;11649;48.090;9.754;2023-04-30T04:04:35;10.50;99.90
22966;DHT22;11649;48.090;9.754;2023-04-30T04:07:02;10.50;99.90
22966;DHT22;11649;48.090;9.754;2023-04-30T04:09:29;10.50;99.90
22966;DHT22;11649;48.090;9.754;2023-04-30T04:11:56;10.40;99.90
22966;DHT22;11649;48.090;9.754;2023-04-30T04:14:23;10.50;99.90
22966;DHT22;11649;48.090;9.754;2023-04-30T04:16:50;10.40;99.90
22966;DHT22;11649;48.090;9.754;2023-04-30T04:19:17;10.40;99.90
22966;DHT22;11649;48.090;9.754;2023-04-30T04:21:44;10.40;99.90
22966;DHT22;11649;48.090;9.754;2023-04-30T04:24:10;10.50;99.90
22966;DHT22;11649;48.090;9.754;2023-04-30T04:26:37;10.50;99.90
22966;DHT22;11649;48.090;9.754;2023-04-30T04:29:04;10.50;99.90
22966;DHT22;11649;48.090;9.754;2023-04-30T04:31:31;10.50;99.90
22966;DHT22;11649;48.090;9.754;2023-04-30T04:33:59;10.50;99.90
22966;DHT22;11649;48.090;9.754;2023-04-30T04:36:27;10.50;99.90
22966;DHT22;11649;48.090;9.754;2023-04-30T04:38:54;10.60;99.90
22966;DHT22;11649;48.090;9.754;2023-04-30T04:41:23;10.60;99.90
22966;DHT22;11649;48.090;9.754;2023-04-30T04:43:50;10.60;99.90
22966;DHT22;11649;48.090;9.754;2023-04-30T04:46:18;10.60;99.90
22966;DHT22;11649;48.090;9.754;2023-04-30T04:48:46;10.70;99.90
22966;DHT22;11649;48.090;9.754;2023-04-30T04:51:13;10.70;99.90
22966;DHT22;11649;48.090;9.754;2023-04-30T04:53:39;10.70;99.90
22966;DHT22;11649;48.090;9.754;2023-04-30T04:56:06;10.80;99.90
22966;DHT22;11649;48.090;9.754;2023-04-30T04:58:34;10.80;99.90
22966;DHT22;11649;48.090;9.754;2023-04-30T05:01:01;10.80;99.90
22966;DHT22;11649;48.090;9.754;2023-04-30T05:03:29;10.80;99.90
22966;DHT22;11649;48.090;9.754;2023-04-30T05:05:56;10.90;99.90
22966;DHT22;11649;48.090;9.754;2023-04-30T05:08:22;10.90;99.90
22966;DHT22;11649;48.090;9.754;2023-04-30T05:10:49;10.90;99.90
22966;DHT22;11649;48.090;9.754;2023-04-30T05:13:16;10.90;99.90
22966;DHT22;11649;48.090;9.754;2023-04-30T05:15:43;10.90;99.90
22966;DHT22;11649;48.090;9.754;2023-04-30T05:18:10;11.00;99.90
22966;DHT22;11649;48.090;9.754;2023-04-30T05:20:37;11.00;99.90
22966;DHT22;11649;48.090;9.754;2023-04-30T05:23:03;11.00;99.90
22966;DHT22;11649;48.090;9.754;2023-04-30T05:25:30;11.00;99.90
22966;DHT22;11649;48.090;9.754;2023-04-30T05:27:57;11.00;99.90
22966;DHT22;11649;48.090;9.754;2023-04-30T05:30:24;11.10;99.90
22966;DHT22;11649;48.090;9.754;2023-04-30T05:32:51;11.10;99.90
22966;DHT22;11649;48.090;9.754;2023-04-30T05:35:18;11.10;99.90
22966;DHT22;11649;48.090;9.754;2023-04-30T05:37:45;11.10;99.90
22966;DHT22;11649;48.090;9.754;2023-04-30T05:40:12;11.30;99.90
22966;DHT22;11649;48.090;9.754;2023-04-30T05:42:39;11.30;99.90
22966;DHT22;11649;48.090;9.754;2023-04-30T05:45:07;11.30;99.90
22966;DHT22;11649;48.090;9.754;2023-04-30T05:47:33;11.40;99.90
22966;DHT22;11649;48.090;9.754;2023-04-30T05:50:00;11.40;99.90
22966;DHT22;11649;48.090;9.754;2023-04-30T05:52:27;11.40;99.90
22966;DHT22;11649;48.090;9.754;2023-04-30T05:54:54;11.40;99.90
22966;DHT22;11649;48.090;9.754;2023-04-30T05:57:21;11.40;99.90
22966;DHT22;11649;48.090;9.754;2023-04-30T05:59:47;11.50;99.90
22966;DHT22;11649;48.090;9.754;2023-04-30T06:02:14;11.60;99.90
22966;DHT22;11649;48.090;9.754;2023-04-30T06:04:41;11.60;99.90
22966;DHT22;11649;48.090;9.754;2023-04-30T06:07:09;11.70;99.90
22966;DHT22;11649;48.090;9.754;2023-04-30T06:09:35;11.80;99.90
22966;DHT22;11649;48.090;9.754;2023-04-30T06:12:02;11.90;99.90
22966;DHT22;11649;48.090;9.754;2023-04-30T06:14:29;11.80;99.90
22966;DHT22;11649;48.090;9.754;2023-04-30T06:16:56;11.70;99.90
22966;DHT22;11649;48.090;9.754;2023-04-30T06:19:23;11.70;99.90
22966;DHT22;11649;48.090;9.754;2023-04-30T06:21:49;11.70;99.90
22966;DHT22;11649;48.090;9.754;2023-04-30T06:24:16;11.70;99.90
22966;DHT22;11649;48.090;9.754;2023-04-30T06:26:43;11.80;99.90
22966;DHT22;11649;48.090;9.754;2023-04-30T06:29:10;11.80;99.90
22966;DHT22;11649;48.090;9.754;2023-04-30T06:31:36;11.90;99.90
22966;DHT22;11649;48.090;9.754;2023-04-30T06:34:03;11.80;99.90
22966;DHT22;11649;48.090;9.754;2023-04-30T06:36:30;11.90;99.90
22966;DHT22;11649;48.090;9.754;2023-04-30T06:38:57;11.90;99.90
22966;DHT22;11649;48.090;9.754;2023-04-30T06:41:23;11.80;99.90
22966;DHT22;11649;48.090;9.754;2023-04-30T06:43:50;11.80;99.90
22966;DHT22;11649;48.090;9.754;2023-04-30T06:46:17;11.90;99.90
22966;DHT22;11649;48.090;9.754;2023-04-30T06:48:44;11.90;99.90
22966;DHT22;11649;48.090;9.754;2023-04-30T06:51:10;12.10;99.90
22966;DHT22;11649;48.090;9.754;2023-04-30T06:53:37;12.00;99.90
22966;DHT22;11649;48.090;9.754;2023-04-30T06:56:04;12.20;99.90
22966;DHT22;11649;48.090;9.754;2023-04-30T06:58:31;12.10;99.90
22966;DHT22;11649;48.090;9.754;2023-04-30T07:00:58;12.20;99.90
22966;DHT22;11649;48.090;9.754;2023-04-30T07:03:24;12.40;99.90
22966;DHT22;11649;48.090;9.754;2023-04-30T07:05:51;12.60;99.90
22966;DHT22;11649;48.090;9.754;2023-04-30T07:08:20;12.60;99.90
22966;DHT22;11649;48.090;9.754;2023-04-30T07:10:47;12.70;99.90
22966;DHT22;11649;48.090;9.754;2023-04-30T07:13:14;12.70;99.90
22966;DHT22;11649;48.090;9.754;2023-04-30T07:15:42;12.90;99.90
22966;DHT22;11649;48.090;9.754;2023-04-30T07:18:09;12.90;99.90
22966;DHT22;11649;48.090;9.754;2023-04-30T07:20:36;12.80;99.90
22966;DHT22;11649;48.090;9.754;2023-04-30T07:23:02;12.90;99.90
22966;DHT22;11649;48.090;9.754;2023-04-30T07:25:29;12.90;99.90
22966;DHT22;11649;48.090;9.754;2023-04-30T07:27:56;12.90;99.90
22966;DHT22;11649;48.090;9.754;2023-04-30T07:30:23;13.00;99.90
22966;DHT22;11649;48.090;9.754;2023-04-30T07:32:50;13.00;99.90
22966;DHT22;11649;48.090;9.754;2023-04-30T07:35:17;13.00;99.90
22966;DHT22;11649;48.090;9.754;2023-04-30T07:37:44;13.20;99.90
22966;DHT22;11649;48.090;9.754;2023-04-30T07:40:11;13.40;99.90
22966;DHT22;11649;48.090;9.754;2023-04-30T07:42:44;13.30;99.90
22966;DHT22;11649;48.090;9.754;2023-04-30T07:45:11;13.50;99.90
22966;DHT22;11649;48.090;9.754;2023-04-30T07:47:38;13.70;99.90
22966;DHT22;11649;48.090;9.754;2023-04-30T07:50:06;13.60;99.90
22966;DHT22;11649;48.090;9.754;2023-04-30T07:52:33;13.70;99.90
22966;DHT22;11649;48.090;9.754;2023-04-30T07:55:00;13.80;99.90
22966;DHT22;11649;48.090;9.754;2023-04-30T07:57:26;14.30;99.90
22966;DHT22;11649;48.090;9.754;2023-04-30T07:59:53;13.90;99.90
22966;DHT22;11649;48.090;9.754;2023-04-30T08:02:20;13.90;99.90
22966;DHT22;11649;48.090;9.754;2023-04-30T08:04:48;13.90;99.90
22966;DHT22;11649;48.090;9.754;2023-04-30T08:07:14;13.80;99.90
22966;DHT22;11649;48.090;9.754;2023-04-30T08:09:41;13.90;99.90
22966;DHT22;11649;48.090;9.754;2023-04-30T08:12:08;13.90;99.90
22966;DHT22;11649;48.090;9.754;2023-04-30T08:14:35;14.20;99.90
22966;DHT22;11649;48.090;9.754;2023-04-30T08:17:02;13.80;99.90
22966;DHT22;11649;48.090;9.754;2023-04-30T08:19:29;13.90;99.90
22966;DHT22;11649;48.090;9.754;2023-04-30T08:21:57;14.10;99.90
22966;DHT22;11649;48.090;9.754;2023-04-30T08:24:23;14.30;99.90
22966;DHT22;11649;48.090;9.754;2023-04-30T08:26:50;14.10;99.90
22966;DHT22;11649;48.090;9.754;2023-04-30T08:29:20;14.50;99.90
22966;DHT22;11649;48.090;9.754;2023-04-30T08:31:46;14.60;99.90
22966;DHT22;11649;48.090;9.754;2023-04-30T08:34:13;14.70;99.90
22966;DHT22;11649;48.090;9.754;2023-04-30T08:36:40;14.90;99.90
22966;DHT22;11649;48.090;9.754;2023-04-30T08:39:07;14.60;98.20
22966;DHT22;11649;48.090;9.754;2023-04-30T08:41:35;14.60;98.10
22966;DHT22;11649;48.090;9.754;2023-04-30T08:44:02;14.50;99.50
22966;DHT22;11649;48.090;9.754;2023-04-30T08:46:33;14.60;99.90
22966;DHT22;11649;48.090;9.754;2023-04-30T08:49:01;14.70;99.90
22966;DHT22;11649;48.090;9.754;2023-04-30T08:51:31;14.80;99.90
22966;DHT22;11649;48.090;9.754;2023-04-30T08:53:58;14.70;98.90
22966;DHT22;11649;48.090;9.754;2023-04-30T08:56:25;14.60;97.40
22966;DHT22;11649;48.090;9.754;2023-04-30T08:58:51;14.80;99.50
22966;DHT22;11649;48.090;9.754;2023-04-30T09:01:19;14.80;99.90
22966;DHT22;11649;48.090;9.754;2023-04-30T09:03:46;14.60;99.90
22966;DHT22;11649;48.090;9.754;2023-04-30T09:06:16;14.60;98.20
22966;DHT22;11649;48.090;9.754;2023-04-30T09:08:45;14.70;95.50
22966;DHT22;11649;48.090;9.754;2023-04-30T09:11:31;14.60;99.40
22966;DHT22;11649;48.090;9.754;2023-04-30T09:13:59;14.80;99.00
22966;DHT22;11649;48.090;9.754;2023-04-30T09:16:46;14.80;94.20
22966;DHT22;11649;48.090;9.754;2023-04-30T09:19:24;14.80;97.00
22966;DHT22;11649;48.090;9.754;2023-04-30T09:21:51;15.00;94.60
22966;DHT22;11649;48.090;9.754;2023-04-30T09:24:18;15.10;94.20
22966;DHT22;11649;48.090;9.754;2023-04-30T09:26:45;15.10;93.80
22966;DHT22;11649;48.090;9.754;2023-04-30T09:29:15;15.40;97.10
22966;DHT22;11649;48.090;9.754;2023-04-30T09:31:46;15.90;98.10
22966;DHT22;11649;48.090;9.754;2023-04-30T09:34:13;15.70;95.40
22966;DHT22;11649;48.090;9.754;2023-04-30T09:36:53;15.70;93.10
22966;DHT22;11649;48.090;9.754;2023-04-30T09:39:20;15.70;95.20
22966;DHT22;11649;48.090;9.754;2023-04-30T09:41:49;15.80;91.80
22966;DHT22;11649;48.090;9.754;2023-04-30T09:44:27;16.00;91.60
22966;DHT22;11649;48.090;9.754;2023-04-30T09:46:55;16.10;91.80
22966;DHT22;11649;48.090;9.754;2023-04-30T09:49:23;16.10;93.00
22966;DHT22;11649;48.090;9.754;2023-04-30T09:51:58;16.20;90.00
22966;DHT22;11649;48.090;9.754;2023-04-30T09:54:29;15.90;91.60
22966;DHT22;11649;48.090;9.754;2023-04-30T09:56:58;15.70;92.40
22966;DHT22;11649;48.090;9.754;2023-04-30T09:59:34;15.70;93.30
22966;DHT22;11649;48.090;9.754;2023-04-30T10:02:03;16.00;90.90
22966;DHT22;11649;48.090;9.754;2023-04-30T10:04:38;15.70;88.20
22966;DHT22;11649;48.090;9.754;2023-04-30T10:07:15;15.80;87.20
22966;DHT22;11649;48.090;9.754;2023-04-30T10:10:02;15.70;91.40
22966;DHT22;11649;48.090;9.754;2023-04-30T10:15:38;15.90;91.40
22966;DHT22;11649;48.090;9.754;2023-04-30T10:18:10;16.10;91.30
22966;DHT22;11649;48.090;9.754;2023-04-30T10:20:39;16.10;89.10
22966;DHT22;11649;48.090;9.754;2023-04-30T10:23:06;16.20;86.90
22966;DHT22;11649;48.090;9.754;2023-04-30T10:25:34;16.20;90.90
22966;DHT22;11649;48.090;9.754;2023-04-30T10:28:04;16.20;90.50
22966;DHT22;11649;48.090;9.754;2023-04-30T10:30:33;16.20;87.40
22966;DHT22;11649;48.090;9.754;2023-04-30T10:33:18;16.00;90.10
22966;DHT22;11649;48.090;9.754;2023-04-30T10:35:56;15.90;91.20
22966;DHT22;11649;48.090;9.754;2023-04-30T10:38:26;15.70;87.50
22966;DHT22;11649;48.090;9.754;2023-04-30T10:40:58;15.60;89.20
22966;DHT22;11649;48.090;9.754;2023-04-30T10:43:25;15.60;90.30
22966;DHT22;11649;48.090;9.754;2023-04-30T10:45:52;15.40;91.50
22966;DHT22;11649;48.090;9.754;2023-04-30T10:48:21;15.40;92.30
22966;DHT22;11649;48.090;9.754;2023-04-30T10:50:55;15.40;90.40
22966;DHT22;11649;48.090;9.754;2023-04-30T10:53:22;15.70;87.60
22966;DHT22;11649;48.090;9.754;2023-04-30T10:56:03;15.80;89.60
22966;DHT22;11649;48.090;9.754;2023-04-30T10:58:37;15.80;85.70
22966;DHT22;11649;48.090;9.754;2023-04-30T11:03:37;15.50;83.70
22966;DHT22;11649;48.090;9.754;2023-04-30T11:06:15;15.20;83.20
22966;DHT22;11649;48.090;9.754;2023-04-30T11:08:45;15.50;80.50
22966;DHT22;11649;48.090;9.754;2023-04-30T11:11:19;15.50;85.90
22966;DHT22;11649;48.090;9.754;2023-04-30T11:13:59;15.60;88.20
22966;DHT22;11649;48.090;9.754;2023-04-30T11:16:33;15.70;90.10
22966;DHT22;11649;48.090;9.754;2023-04-30T11:19:11;15.90;84.10
22966;DHT22;11649;48.090;9.754;2023-04-30T11:21:40;16.10;84.20
22966;DHT22;11649;48.090;9.754;2023-04-30T11:24:07;16.30;80.40
22966;DHT22;11649;48.090;9.754;2023-04-30T11:27:02;16.40;86.10
22966;DHT22;11649;48.090;9.754;2023-04-30T11:29:29;16.60;89.30
22966;DHT22;11649;48.090;9.754;2023-04-30T11:31:59;17.10;84.10
22966;DHT22;11649;48.090;9.754;2023-04-30T11:34:26;17.30;81.50
22966;DHT22;11649;48.090;9.754;2023-04-30T11:36:57;17.70;73.30
22966;DHT22;11649;48.090;9.754;2023-04-30T11:39:27;17.90;68.80
22966;DHT22;11649;48.090;9.754;2023-04-30T11:41:54;18.20;74.30
22966;DHT22;11649;48.090;9.754;2023-04-30T11:44:24;18.50;70.80
22966;DHT22;11649;48.090;9.754;2023-04-30T11:46:51;18.40;69.20
22966;DHT22;11649;48.090;9.754;2023-04-30T11:49:22;18.30;71.10
22966;DHT22;11649;48.090;9.754;2023-04-30T11:51:49;18.40;70.20
22966;DHT22;11649;48.090;9.754;2023-04-30T11:54:17;18.10;74.80
22966;DHT22;11649;48.090;9.754;2023-04-30T11:56:47;18.00;73.80
22966;DHT22;11649;48.090;9.754;2023-04-30T11:59:15;18.40;75.00
22966;DHT22;11649;48.090;9.754;2023-04-30T12:01:42;18.80;72.20
22966;DHT22;11649;48.090;9.754;2023-04-30T12:04:09;18.80;71.50
22966;DHT22;11649;48.090;9.754;2023-04-30T12:06:36;18.90;66.10
22966;DHT22;11649;48.090;9.754;2023-04-30T12:09:03;18.90;72.00
22966;DHT22;11649;48.090;9.754;2023-04-30T12:11:34;19.30;68.60
22966;DHT22;11649;48.090;9.754;2023-04-30T12:14:04;19.40;67.60
22966;DHT22;11649;48.090;9.754;2023-04-30T12:16:50;19.40;68.60
22966;DHT22;11649;48.090;9.754;2023-04-30T12:19:21;19.00;67.80
22966;DHT22;11649;48.090;9.754;2023-04-30T12:21:50;18.70;71.90
22966;DHT22;11649;48.090;9.754;2023-04-30T12:24:20;18.80;74.00
22966;DHT22;11649;48.090;9.754;2023-04-30T12:26:52;18.90;69.40
22966;DHT22;11649;48.090;9.754;2023-04-30T12:29:20;19.00;66.80
22966;DHT22;11649;48.090;9.754;2023-04-30T12:31:48;18.90;65.40
22966;DHT22;11649;48.090;9.754;2023-04-30T12:34:16;18.80;71.60
22966;DHT22;11649;48.090;9.754;2023-04-30T12:36:44;18.90;70.70
22966;DHT22;11649;48.090;9.754;2023-04-30T12:39:12;18.80;70.10
22966;DHT22;11649;48.090;9.754;2023-04-30T12:41:46;19.10;68.40
22966;DHT22;11649;48.090;9.754;2023-04-30T12:46:40;18.00;71.40
22966;DHT22;11649;48.090;9.754;2023-04-30T12:49:08;17.80;69.30
22966;DHT22;11649;48.090;9.754;2023-04-30T12:51:37;17.70;72.30
22966;DHT22;11649;48.090;9.754;2023-04-30T12:54:06;17.40;70.40
22966;DHT22;11649;48.090;9.754;2023-04-30T12:56:33;17.30;77.80
22966;DHT22;11649;48.090;9.754;2023-04-30T12:59:00;17.40;75.40
22966;DHT22;11649;48.090;9.754;2023-04-30T13:01:27;17.50;73.80
22966;DHT22;11649;48.090;9.754;2023-04-30T13:03:54;17.40;75.70
22966;DHT22;11649;48.090;9.754;2023-04-30T13:06:21;17.30;74.50
22966;DHT22;11649;48.090;9.754;2023-04-30T13:08:49;17.20;74.00
22966;DHT22;11649;48.090;9.754;2023-04-30T13:11:22;17.30;74.50
22966;DHT22;11649;48.090;9.754;2023-04-30T13:13:49;17.60;75.30
22966;DHT22;11649;48.090;9.754;2023-04-30T13:16:16;17.80;74.60
22966;DHT22;11649;48.090;9.754;2023-04-30T13:18:43;18.00;75.10
22966;DHT22;11649;48.090;9.754;2023-04-30T13:21:10;17.80;71.50
22966;DHT22;11649;48.090;9.754;2023-04-30T13:23:37;17.80;73.10
22966;DHT22;11649;48.090;9.754;2023-04-30T13:26:17;18.10;79.00
22966;DHT22;11649;48.090;9.754;2023-04-30T13:28:44;18.70;68.90
22966;DHT22;11649;48.090;9.754;2023-04-30T13:31:11;19.00;67.70
22966;DHT22;11649;48.090;9.754;2023-04-30T13:33:38;19.10;69.00
22966;DHT22;11649;48.090;9.754;2023-04-30T13:36:04;19.20;65.90
22966;DHT22;11649;48.090;9.754;2023-04-30T13:38:32;19.70;67.70
22966;DHT22;11649;48.090;9.754;2023-04-30T13:40:59;20.20;63.80
22966;DHT22;11649;48.090;9.754;2023-04-30T13:43:25;20.80;62.80
22966;DHT22;11649;48.090;9.754;2023-04-30T13:45:52;21.30;62.80
22966;DHT22;11649;48.090;9.754;2023-04-30T13:48:19;21.50;56.90
22966;DHT22;11649;48.090;9.754;2023-04-30T13:50:46;21.60;63.10
22966;DHT22;11649;48.090;9.754;2023-04-30T13:53:12;22.30;56.60
22966;DHT22;11649;48.090;9.754;2023-04-30T13:55:39;24.10;52.40
22966;DHT22;11649;48.090;9.754;2023-04-30T13:58:06;24.80;49.90
22966;DHT22;11649;48.090;9.754;2023-04-30T14:00:33;25.10;49.90
22966;DHT22;11649;48.090;9.754;2023-04-30T14:03:00;24.90;47.60
22966;DHT22;11649;48.090;9.754;2023-04-30T14:05:27;24.00;48.50
22966;DHT22;11649;48.090;9.754;2023-04-30T14:07:54;22.20;52.50
22966;DHT22;11649;48.090;9.754;2023-04-30T14:10:21;21.30;58.60
22966;DHT22;11649;48.090;9.754;2023-04-30T14:12:47;21.60;56.30
22966;DHT22;11649;48.090;9.754;2023-04-30T14:15:15;21.80;55.70
22966;DHT22;11649;48.090;9.754;2023-04-30T14:17:42;21.60;53.40
22966;DHT22;11649;48.090;9.754;2023-04-30T14:20:09;21.90;54.80
22966;DHT22;11649;48.090;9.754;2023-04-30T14:22:36;21.90;53.40
22966;DHT22;11649;48.090;9.754;2023-04-30T14:25:07;21.30;57.60
22966;DHT22;11649;48.090;9.754;2023-04-30T14:27:35;21.90;60.00
22966;DHT22;11649;48.090;9.754;2023-04-30T14:30:02;23.40;51.50
22966;DHT22;11649;48.090;9.754;2023-04-30T14:32:29;24.10;49.30
22966;DHT22;11649;48.090;9.754;2023-04-30T14:34:56;23.60;50.40
22966;DHT22;11649;48.090;9.754;2023-04-30T14:37:23;23.40;49.90
22966;DHT22;11649;48.090;9.754;2023-04-30T14:39:50;23.10;51.10
22966;DHT22;11649;48.090;9.754;2023-04-30T14:42:17;22.50;49.40
22966;DHT22;11649;48.090;9.754;2023-04-30T14:44:44;21.70;54.40
22966;DHT22;11649;48.090;9.754;2023-04-30T14:47:11;21.20;58.00
22966;DHT22;11649;48.090;9.754;2023-04-30T14:49:39;21.00;54.40
22966;DHT22;11649;48.090;9.754;2023-04-30T14:52:06;21.70;54.40
22966;DHT22;11649;48.090;9.754;2023-04-30T14:54:33;22.40;53.90
22966;DHT22;11649;48.090;9.754;2023-04-30T14:57:00;23.20;53.70
22966;DHT22;11649;48.090;9.754;2023-04-30T14:59:29;23.00;53.40
22966;DHT22;11649;48.090;9.754;2023-04-30T15:01:55;22.80;52.60
22966;DHT22;11649;48.090;9.754;2023-04-30T15:04:22;23.30;52.10
22966;DHT22;11649;48.090;9.754;2023-04-30T15:06:49;23.90;49.20
22966;DHT22;11649;48.090;9.754;2023-04-30T15:09:16;23.80;48.80
22966;DHT22;11649;48.090;9.754;2023-04-30T15:11:43;23.00;50.70
22966;DHT22;11649;48.090;9.754;2023-04-30T15:14:10;21.90;52.30
22966;DHT22;11649;48.090;9.754;2023-04-30T15:16:37;21.30;58.00
22966;DHT22;11649;48.090;9.754;2023-04-30T15:19:04;20.80;56.50
22966;DHT22;11649;48.090;9.754;2023-04-30T15:21:31;20.40;56.00
22966;DHT22;11649;48.090;9.754;2023-04-30T15:23:59;19.90;58.40
22966;DHT22;11649;48.090;9.754;2023-04-30T15:26:27;19.50;60.50
22966;DHT22;11649;48.090;9.754;2023-04-30T15:28:54;19.20;59.70
22966;DHT22;11649;48.090;9.754;2023-04-30T15:31:22;19.10;61.00
22966;DHT22;11649;48.090;9.754;2023-04-30T15:33:49;19.60;59.30
22966;DHT22;11649;48.090;9.754;2023-04-30T15:36:16;19.90;61.40
22966;DHT22;11649;48.090;9.754;2023-04-30T15:38:43;20.20;57.40
22966;DHT22;11649;48.090;9.754;2023-04-30T15:41:10;19.90;60.60
22966;DHT22;11649;48.090;9.754;2023-04-30T15:43:37;20.30;59.50
22966;DHT22;11649;48.090;9.754;2023-04-30T15:46:03;20.70;58.50
22966;DHT22;11649;48.090;9.754;2023-04-30T15:48:30;21.10;57.30
22966;DHT22;11649;48.090;9.754;2023-04-30T15:50:57;21.00;57.60
22966;DHT22;11649;48.090;9.754;2023-04-30T15:53:24;20.70;54.40
22966;DHT22;11649;48.090;9.754;2023-04-30T15:55:51;20.10;56.90